LTAT/MLX METAR and TAF weather

Enter ICAO airport designator
Station Type Date Time Source
LTAT METAR 2019/08/25 19:50 UTC NOAA

LTAT 251950Z 36003KT 340V080 9999 FEW040 24/10 Q1012 NOSIG


Station Type Date Time Source
LTAT Decoded METAR 2019/08/25 19:50 UTC NOAA

Station name not available
Aug 25, 2019 - 03:50 PM EDT / 2019.08.25 1950 UTC
Wind: from the N (360 degrees) at 3 MPH (3 KT) (direction variable):0
Visibility: greater than 7 mile(s):0
Sky conditions: mostly clear
Temperature: 75 F (24 C)
Dew Point: 50 F (10 C)
Relative Humidity: 41%
Pressure (altimeter): 29.88 in. Hg (1012 hPa)
ob: LTAT 251950Z 36003KT 340V080 9999 FEW040 24/10 Q1012 NOSIG
cycle: 20

Station Type Date Time Source
LTAT TAF 2019/08/25 18:03 UTC NOAA

TAF LTAT 251640Z 2518/2618 VRB02KT 9999 SCT040
BECMG 2520/2522 CAVOK
BECMG 2606/2608 SCT040
TEMPO 2612/2616 21015KT
BECMG 2615/2617 CAVOK

Example: see airport list